createdAt,value
2017-11-09T00:00:06.314Z,9.48
2017-11-09T00:01:06.273Z,9.43
2017-11-09T00:02:06.144Z,9.40
2017-11-09T00:03:06.056Z,9.42
2017-11-09T00:04:05.967Z,9.43
2017-11-09T00:05:05.890Z,9.40
2017-11-09T00:06:05.800Z,9.46
2017-11-09T00:07:05.751Z,9.35
2017-11-09T00:08:05.625Z,9.38
2017-11-09T00:09:05.536Z,9.40
2017-11-09T00:10:05.449Z,9.45
2017-11-09T00:11:05.366Z,9.43
2017-11-09T00:12:05.279Z,9.35
2017-11-09T00:13:05.197Z,9.46
2017-11-09T00:14:05.105Z,9.53
2017-11-09T00:15:05.017Z,9.58
2017-11-09T00:16:04.936Z,9.52
2017-11-09T00:17:04.843Z,9.38
2017-11-09T00:18:04.765Z,9.34
2017-11-09T00:19:04.674Z,9.13
2017-11-09T00:20:04.591Z,9.25
2017-11-09T00:21:04.504Z,9.46
2017-11-09T00:22:04.414Z,9.30
2017-11-09T00:23:04.330Z,9.31
2017-11-09T00:24:04.242Z,9.35
2017-11-09T00:25:04.155Z,9.45
2017-11-09T00:26:04.073Z,9.48
2017-11-09T00:27:03.987Z,9.45
2017-11-09T00:28:03.905Z,9.27
2017-11-09T00:29:03.824Z,9.34
2017-11-09T00:30:03.729Z,9.42
2017-11-09T00:31:03.645Z,9.32
2017-11-09T00:32:03.554Z,9.25
2017-11-09T00:33:03.464Z,9.43
2017-11-09T00:34:03.377Z,9.43
2017-11-09T00:35:03.294Z,9.45
2017-11-09T00:36:03.207Z,9.35
2017-11-09T00:37:03.119Z,9.35
2017-11-09T00:38:03.035Z,9.31
2017-11-09T00:39:02.947Z,9.43
2017-11-09T00:40:02.868Z,9.31
2017-11-09T00:41:02.773Z,9.43
2017-11-09T00:42:02.695Z,9.27
2017-11-09T00:43:02.606Z,9.43
2017-11-09T00:44:02.515Z,9.42
2017-11-09T00:45:02.428Z,9.43
2017-11-09T00:46:02.340Z,9.46
2017-11-09T00:47:02.260Z,9.42
2017-11-09T00:48:02.171Z,9.48
2017-11-09T00:49:02.116Z,9.58
2017-11-09T00:50:02.002Z,9.56
2017-11-09T00:51:01.913Z,9.53
2017-11-09T00:52:01.825Z,9.56
2017-11-09T00:53:01.747Z,9.56
2017-11-09T00:54:01.656Z,9.49
2017-11-09T00:55:01.568Z,9.42
2017-11-09T00:56:01.518Z,9.35
2017-11-09T00:57:01.397Z,9.52
2017-11-09T00:58:01.322Z,9.64
2017-11-09T00:59:01.232Z,9.63
2017-11-09T01:00:01.145Z,9.35
2017-11-09T01:01:01.048Z,9.35
2017-11-09T01:02:00.974Z,9.45
2017-11-09T01:03:00.883Z,9.28
2017-11-09T01:04:00.796Z,9.38
2017-11-09T01:05:00.712Z,9.40
2017-11-09T01:06:00.622Z,9.53
2017-11-09T01:07:00.541Z,9.45
2017-11-09T01:08:00.449Z,9.53
2017-11-09T01:09:00.369Z,9.48
2017-11-09T01:10:00.277Z,9.40
2017-11-09T01:11:00.204Z,9.25
2017-11-09T01:12:00.109Z,9.32
2017-11-09T01:13:00.021Z,9.20
2017-11-09T01:13:59.937Z,9.28
2017-11-09T01:14:59.848Z,9.21
2017-11-09T01:15:59.764Z,9.27
2017-11-09T01:16:59.675Z,9.28
2017-11-09T01:17:59.596Z,9.35
2017-11-09T01:18:59.512Z,9.09
2017-11-09T01:19:59.416Z,9.18
2017-11-09T01:20:59.338Z,9.27
2017-11-09T01:21:59.246Z,9.20
2017-11-09T01:22:59.155Z,9.20
2017-11-09T01:23:59.090Z,9.28
2017-11-09T01:24:58.980Z,9.43
2017-11-09T01:25:58.904Z,9.42
2017-11-09T01:26:58.812Z,9.31
2017-11-09T01:27:58.719Z,9.28
2017-11-09T01:28:58.639Z,9.40
2017-11-09T01:29:58.552Z,9.42
2017-11-09T01:30:58.480Z,9.46
2017-11-09T01:31:58.402Z,9.35
2017-11-09T01:32:58.296Z,9.38
2017-11-09T01:33:58.205Z,9.35
2017-11-09T01:34:58.117Z,9.27
2017-11-09T01:35:58.036Z,9.28
2017-11-09T01:36:57.953Z,9.35
2017-11-09T01:37:57.857Z,9.31
2017-11-09T01:38:57.823Z,9.40
2017-11-09T01:39:57.692Z,9.50
2017-11-09T01:40:57.601Z,9.35
2017-11-09T01:41:57.514Z,9.46
2017-11-09T01:42:57.427Z,9.40
2017-11-09T01:43:57.336Z,9.21
2017-11-09T01:44:57.258Z,9.32
2017-11-09T01:45:57.168Z,9.34
2017-11-09T01:46:57.086Z,9.25
2017-11-09T01:47:56.994Z,9.31
2017-11-09T01:48:56.906Z,9.30
2017-11-09T01:49:56.817Z,9.30
2017-11-09T01:50:56.746Z,9.16
2017-11-09T01:51:56.650Z,9.25
2017-11-09T01:52:56.568Z,9.32
2017-11-09T01:53:56.496Z,9.32
2017-11-09T01:54:56.403Z,9.42
2017-11-09T01:55:56.304Z,9.43
2017-11-09T01:56:56.226Z,9.56
2017-11-09T01:57:56.134Z,9.50
2017-11-09T01:58:56.041Z,9.48
2017-11-09T01:59:55.959Z,9.46
2017-11-09T02:00:55.875Z,9.52
2017-11-09T02:01:55.928Z,9.45
2017-11-09T02:02:55.706Z,9.43
2017-11-09T02:03:55.619Z,9.40
2017-11-09T02:04:55.526Z,9.46
2017-11-09T02:05:55.449Z,9.48
2017-11-09T02:06:55.359Z,9.52
2017-11-09T02:07:55.269Z,9.45
2017-11-09T02:08:55.188Z,9.46
2017-11-09T02:09:55.098Z,9.42
2017-11-09T02:10:55.020Z,9.35
2017-11-09T02:11:54.935Z,9.46
2017-11-09T02:12:54.842Z,9.39
2017-11-09T02:13:54.758Z,9.45
2017-11-09T02:14:54.672Z,9.49
2017-11-09T02:15:54.592Z,9.64
2017-11-09T02:16:54.503Z,9.53
2017-11-09T02:17:54.411Z,9.43
2017-11-09T02:18:54.325Z,9.45
2017-11-09T02:19:54.240Z,9.42
2017-11-09T02:20:54.155Z,9.38
2017-11-09T02:21:54.064Z,9.46
2017-11-09T02:22:53.992Z,9.27
2017-11-09T02:23:53.892Z,9.05
2017-11-09T02:24:53.807Z,9.30
2017-11-09T02:25:53.732Z,9.30
2017-11-09T02:26:53.636Z,9.28
2017-11-09T02:27:53.556Z,9.40
2017-11-09T02:28:53.463Z,9.32
2017-11-09T02:29:53.371Z,9.40
2017-11-09T02:30:53.289Z,9.28
2017-11-09T02:31:53.203Z,9.43
2017-11-09T02:32:53.126Z,9.45
2017-11-09T02:33:53.028Z,9.38
2017-11-09T02:34:52.941Z,9.30
2017-11-09T02:35:52.866Z,9.35
2017-11-09T02:36:52.786Z,9.06
2017-11-09T02:37:52.686Z,9.09
2017-11-09T02:38:52.606Z,9.27
2017-11-09T02:39:52.511Z,9.27
2017-11-09T02:40:52.441Z,9.28
2017-11-09T02:41:52.344Z,9.49
2017-11-09T02:42:52.254Z,9.13
2017-11-09T02:43:52.294Z,9.23
2017-11-09T02:44:52.086Z,9.24
2017-11-09T02:45:52.010Z,9.06
2017-11-09T02:46:51.914Z,9.13
2017-11-09T02:47:51.828Z,9.06
2017-11-09T02:48:51.736Z,9.10
2017-11-09T02:49:51.653Z,9.20
2017-11-09T02:50:52.336Z,9.04
2017-11-09T02:51:51.475Z,9.02
2017-11-09T02:52:51.392Z,9.20
2017-11-09T02:53:51.311Z,9.20
2017-11-09T02:54:51.216Z,9.28
2017-11-09T02:55:51.126Z,9.28
2017-11-09T02:56:51.043Z,9.06
2017-11-09T02:57:50.961Z,9.30
2017-11-09T02:58:50.878Z,9.21
2017-11-09T02:59:50.787Z,9.23
2017-11-09T03:00:50.692Z,9.28
2017-11-09T03:01:50.613Z,9.24
2017-11-09T03:02:50.525Z,9.25
2017-11-09T03:03:50.434Z,9.04
2017-11-09T03:04:50.348Z,9.12
2017-11-09T03:05:50.262Z,9.12
2017-11-09T03:06:50.179Z,9.27
2017-11-09T03:07:50.088Z,8.97
2017-11-09T03:08:49.999Z,9.05
2017-11-09T03:09:49.919Z,8.90
2017-11-09T03:10:49.837Z,9.18
2017-11-09T03:11:49.750Z,9.21
2017-11-09T03:12:49.653Z,9.28
2017-11-09T03:13:49.571Z,9.32
2017-11-09T03:14:49.482Z,9.34
2017-11-09T03:15:49.398Z,9.48
2017-11-09T03:16:49.316Z,9.46
2017-11-09T03:17:49.222Z,9.40
2017-11-09T03:18:49.136Z,9.38
2017-11-09T03:19:49.050Z,9.27
2017-11-09T03:20:48.964Z,9.09
2017-11-09T03:21:48.888Z,9.06
2017-11-09T03:22:48.784Z,9.12
2017-11-09T03:23:48.700Z,9.18
2017-11-09T03:24:48.624Z,9.30
2017-11-09T03:25:48.536Z,9.34
2017-11-09T03:26:48.443Z,9.18
2017-11-09T03:27:48.359Z,9.18
2017-11-09T03:28:48.267Z,9.24
2017-11-09T03:29:48.188Z,9.24
2017-11-09T03:30:48.110Z,9.30
2017-11-09T03:31:48.007Z,9.40
2017-11-09T03:32:47.923Z,9.46
2017-11-09T03:33:47.838Z,9.40
2017-11-09T03:34:47.747Z,9.06
2017-11-09T03:35:47.662Z,9.15
2017-11-09T03:36:47.583Z,9.09
2017-11-09T03:37:47.499Z,9.16
2017-11-09T03:38:47.402Z,9.10
2017-11-09T03:39:47.358Z,8.97
2017-11-09T03:40:47.231Z,9.05
2017-11-09T03:41:47.142Z,9.24
2017-11-09T03:42:47.057Z,9.18
2017-11-09T03:43:46.982Z,9.16
2017-11-09T03:44:46.894Z,9.25
2017-11-09T03:45:46.799Z,9.27
2017-11-09T03:46:46.717Z,9.28
2017-11-09T03:47:46.634Z,9.28
2017-11-09T03:48:46.535Z,9.21
2017-11-09T03:49:46.456Z,9.09
2017-11-09T03:50:46.368Z,9.18
2017-11-09T03:51:46.276Z,9.09
2017-11-09T03:52:46.198Z,8.99
2017-11-09T03:53:46.104Z,9.05
2017-11-09T03:54:46.022Z,9.30
2017-11-09T03:55:45.930Z,9.34
2017-11-09T03:56:45.854Z,9.34
2017-11-09T03:57:45.759Z,9.42
2017-11-09T03:58:45.677Z,9.50
2017-11-09T03:59:45.594Z,9.38
2017-11-09T04:00:45.507Z,9.34
2017-11-09T04:01:45.417Z,9.31
2017-11-09T04:02:45.330Z,9.39
2017-11-09T04:03:45.245Z,9.40
2017-11-09T04:04:45.157Z,9.42
2017-11-09T04:05:45.068Z,9.46
2017-11-09T04:06:44.985Z,9.34
2017-11-09T04:07:44.945Z,9.40
2017-11-09T04:08:44.814Z,9.39
2017-11-09T04:09:44.722Z,9.50
2017-11-09T04:10:44.638Z,9.43
2017-11-09T04:11:44.550Z,9.46
2017-11-09T04:12:44.467Z,9.49
2017-11-09T04:13:44.382Z,9.56
2017-11-09T04:14:44.299Z,9.43
2017-11-09T04:15:44.213Z,9.40
2017-11-09T04:16:44.123Z,9.42
2017-11-09T04:17:44.035Z,9.40
2017-11-09T04:18:43.952Z,9.45
2017-11-09T04:19:43.882Z,9.52
2017-11-09T04:20:43.779Z,9.45
2017-11-09T04:21:43.690Z,9.53
2017-11-09T04:22:43.610Z,9.50
2017-11-09T04:23:43.527Z,9.53
2017-11-09T04:24:43.437Z,9.52
2017-11-09T04:25:43.349Z,9.42
2017-11-09T04:26:43.265Z,9.27
2017-11-09T04:27:43.180Z,9.30
2017-11-09T04:28:43.092Z,9.30
2017-11-09T04:29:43.014Z,9.31
2017-11-09T04:30:42.917Z,9.39
2017-11-09T04:31:42.834Z,9.40
2017-11-09T04:32:42.744Z,9.50
2017-11-09T04:33:42.670Z,9.53
2017-11-09T04:34:42.582Z,9.48
2017-11-09T04:35:42.493Z,9.43
2017-11-09T04:36:42.403Z,9.24
2017-11-09T04:37:42.319Z,9.32
2017-11-09T04:38:42.235Z,9.35
2017-11-09T04:39:42.146Z,8.97
2017-11-09T04:40:42.059Z,9.21
2017-11-09T04:41:41.974Z,9.25
2017-11-09T04:42:41.885Z,9.23
2017-11-09T04:43:41.806Z,9.30
2017-11-09T04:44:41.715Z,9.21
2017-11-09T04:45:41.626Z,9.28
2017-11-09T04:46:41.544Z,9.27
2017-11-09T04:47:41.453Z,9.25
2017-11-09T04:48:41.370Z,9.40
2017-11-09T04:49:41.284Z,9.35
2017-11-09T04:50:41.200Z,9.34
2017-11-09T04:51:41.117Z,9.28
2017-11-09T04:52:41.025Z,9.42
2017-11-09T04:53:40.937Z,9.48
2017-11-09T04:54:40.850Z,9.34
2017-11-09T04:55:40.768Z,9.20
2017-11-09T04:56:40.681Z,9.21
2017-11-09T04:57:40.590Z,9.20
2017-11-09T04:58:40.505Z,9.21
2017-11-09T04:59:40.421Z,9.10
2017-11-09T05:00:40.338Z,9.15
2017-11-09T05:01:40.253Z,9.18
2017-11-09T05:02:40.162Z,9.28
2017-11-09T05:03:40.075Z,9.28
2017-11-09T05:04:39.989Z,9.38
2017-11-09T05:05:39.906Z,9.35
2017-11-09T05:06:39.815Z,9.48
2017-11-09T05:07:39.730Z,9.46
2017-11-09T05:08:39.648Z,9.43
2017-11-09T05:09:39.559Z,9.43
2017-11-09T05:10:39.473Z,9.20
2017-11-09T05:11:39.386Z,9.20
2017-11-09T05:12:39.296Z,9.10
2017-11-09T05:13:39.220Z,8.90
2017-11-09T05:14:39.133Z,9.15
2017-11-09T05:15:39.047Z,9.30
2017-11-09T05:16:38.957Z,9.25
2017-11-09T05:17:38.869Z,9.30
2017-11-09T05:18:38.784Z,9.34
2017-11-09T05:19:38.709Z,9.15
2017-11-09T05:20:38.606Z,9.23
2017-11-09T05:21:38.523Z,9.25
2017-11-09T05:22:38.439Z,9.15
2017-11-09T05:23:38.354Z,9.06
2017-11-09T05:24:38.274Z,8.96
2017-11-09T05:25:38.180Z,8.90
2017-11-09T05:26:38.092Z,9.04
2017-11-09T05:27:38.006Z,9.09
2017-11-09T05:28:37.920Z,9.24
2017-11-09T05:29:37.833Z,9.25
2017-11-09T05:30:37.750Z,9.05
2017-11-09T05:31:37.665Z,9.20
2017-11-09T05:32:37.576Z,9.04
2017-11-09T05:33:37.492Z,9.12
2017-11-09T05:34:37.397Z,9.06
2017-11-09T05:35:37.318Z,9.15
2017-11-09T05:36:37.226Z,9.20
2017-11-09T05:37:37.144Z,9.16
2017-11-09T05:38:37.065Z,8.97
2017-11-09T05:39:36.966Z,9.10
2017-11-09T05:40:36.880Z,9.02
2017-11-09T05:41:36.801Z,8.93
2017-11-09T05:42:36.717Z,8.90
2017-11-09T05:43:36.634Z,8.94
2017-11-09T05:44:36.532Z,8.96
2017-11-09T05:45:36.452Z,8.81
2017-11-09T05:46:36.366Z,8.86
2017-11-09T05:47:36.279Z,8.88
2017-11-09T05:48:36.194Z,8.94
2017-11-09T05:49:36.101Z,8.72
2017-11-09T05:50:36.016Z,8.91
2017-11-09T05:51:35.935Z,8.96
2017-11-09T05:52:35.837Z,8.96
2017-11-09T05:53:35.755Z,8.99
2017-11-09T05:54:35.676Z,8.99
2017-11-09T05:55:35.584Z,8.99
2017-11-09T05:56:35.490Z,9.04
2017-11-09T05:57:35.406Z,9.12
2017-11-09T05:58:35.319Z,9.10
2017-11-09T05:59:35.235Z,9.13
2017-11-09T06:00:35.148Z,9.18
2017-11-09T06:01:35.061Z,9.16
2017-11-09T06:02:34.973Z,9.02
2017-11-09T06:03:34.896Z,8.99
2017-11-09T06:04:34.848Z,9.02
2017-11-09T06:05:34.708Z,8.66
2017-11-09T06:06:34.628Z,8.75
2017-11-09T06:07:34.541Z,8.84
2017-11-09T06:08:34.455Z,8.87
2017-11-09T06:09:34.371Z,8.69
2017-11-09T06:10:34.286Z,8.63
2017-11-09T06:11:34.193Z,8.69
2017-11-09T06:12:34.107Z,8.88
2017-11-09T06:13:34.022Z,8.60
2017-11-09T06:14:33.944Z,8.79
2017-11-09T06:15:33.851Z,8.81
2017-11-09T06:16:33.759Z,8.78
2017-11-09T06:17:33.678Z,8.94
2017-11-09T06:18:33.585Z,8.69
2017-11-09T06:19:33.496Z,8.54
2017-11-09T06:20:33.411Z,8.78
2017-11-09T06:21:33.320Z,8.81
2017-11-09T06:22:33.241Z,8.93
2017-11-09T06:23:33.146Z,8.93
2017-11-09T06:24:33.069Z,8.84
2017-11-09T06:25:32.973Z,8.91
2017-11-09T06:26:32.888Z,8.88
2017-11-09T06:27:32.800Z,8.88
2017-11-09T06:28:32.718Z,9.04
2017-11-09T06:29:32.636Z,9.04
2017-11-09T06:30:32.539Z,9.04
2017-11-09T06:31:32.448Z,9.12
2017-11-09T06:32:32.391Z,9.24
2017-11-09T06:33:32.275Z,9.12
2017-11-09T06:34:32.199Z,8.96
2017-11-09T06:35:32.103Z,9.05
2017-11-09T06:36:32.020Z,9.06
2017-11-09T06:37:31.930Z,9.05
2017-11-09T06:38:31.843Z,9.05
2017-11-09T06:39:31.779Z,8.96
2017-11-09T06:40:31.673Z,9.02
2017-11-09T06:41:31.589Z,8.60
2017-11-09T06:42:31.503Z,8.87
2017-11-09T06:43:31.422Z,8.86
2017-11-09T06:44:31.347Z,8.78
2017-11-09T06:45:31.255Z,8.84
2017-11-09T06:46:31.157Z,9.02
2017-11-09T06:47:31.066Z,9.06
2017-11-09T06:48:30.979Z,9.04
2017-11-09T06:49:30.889Z,9.05
2017-11-09T06:50:30.809Z,9.10
2017-11-09T06:51:30.722Z,8.99
2017-11-09T06:52:30.630Z,8.99
2017-11-09T06:53:30.545Z,9.06
2017-11-09T06:54:30.464Z,8.96
2017-11-09T06:55:30.375Z,8.88
2017-11-09T06:56:30.293Z,8.84
2017-11-09T06:57:30.201Z,8.62
2017-11-09T06:58:30.111Z,8.71
2017-11-09T06:59:30.032Z,8.91
2017-11-09T07:00:29.947Z,8.81
2017-11-09T07:01:29.854Z,8.90
2017-11-09T07:02:29.787Z,8.78
2017-11-09T07:03:29.682Z,8.63
2017-11-09T07:04:29.591Z,8.72
2017-11-09T07:05:29.507Z,8.36
2017-11-09T07:06:29.426Z,8.75
2017-11-09T07:07:29.332Z,8.58
2017-11-09T07:08:29.266Z,8.72
2017-11-09T07:09:29.157Z,8.86
2017-11-09T07:10:29.074Z,8.81
2017-11-09T07:11:29.001Z,8.65
2017-11-09T07:12:28.898Z,8.75
2017-11-09T07:13:28.821Z,8.60
2017-11-09T07:14:28.725Z,8.66
2017-11-09T07:15:28.633Z,8.72
2017-11-09T07:16:28.555Z,8.50
2017-11-09T07:17:28.457Z,8.66
2017-11-09T07:18:28.391Z,8.75
2017-11-09T07:19:28.311Z,8.79
2017-11-09T07:20:28.226Z,8.81
2017-11-09T07:21:28.113Z,8.81
2017-11-09T07:22:28.027Z,8.99
2017-11-09T07:23:27.944Z,9.04
2017-11-09T07:24:27.859Z,8.81
2017-11-09T07:25:27.777Z,8.48
2017-11-09T07:26:27.680Z,8.50
2017-11-09T07:27:27.591Z,8.54
2017-11-09T07:28:27.501Z,8.45
2017-11-09T07:29:27.418Z,8.66
2017-11-09T07:30:27.332Z,8.58
2017-11-09T07:31:27.244Z,8.60
2017-11-09T07:32:27.155Z,8.69
2017-11-09T07:33:27.082Z,8.57
2017-11-09T07:34:27.007Z,8.73
2017-11-09T07:35:26.889Z,8.79
2017-11-09T07:36:26.808Z,8.94
2017-11-09T07:37:26.722Z,9.01
2017-11-09T07:38:26.635Z,8.91
2017-11-09T07:39:26.548Z,8.79
2017-11-09T07:40:26.457Z,8.79
2017-11-09T07:41:26.369Z,8.83
2017-11-09T07:42:26.310Z,8.65
2017-11-09T07:43:26.202Z,8.55
2017-11-09T07:44:26.112Z,8.57
2017-11-09T07:45:26.022Z,8.63
2017-11-09T07:46:25.936Z,8.68
2017-11-09T07:47:25.865Z,8.87
2017-11-09T07:48:25.765Z,8.99
2017-11-09T07:49:25.674Z,8.90
2017-11-09T07:50:25.590Z,8.99
2017-11-09T07:51:25.505Z,9.01
2017-11-09T07:52:25.429Z,9.09
2017-11-09T07:53:25.330Z,9.04
2017-11-09T07:54:25.240Z,9.06
2017-11-09T07:55:25.164Z,8.78
2017-11-09T07:56:25.066Z,8.88
2017-11-09T07:57:25.025Z,8.93
2017-11-09T07:58:24.897Z,8.81
2017-11-09T07:59:24.807Z,8.63
2017-11-09T08:00:24.720Z,8.69
2017-11-09T08:01:24.633Z,8.68
2017-11-09T08:02:24.546Z,8.72
2017-11-09T08:03:24.464Z,8.79
2017-11-09T08:04:24.382Z,8.93
2017-11-09T08:05:24.289Z,9.01
2017-11-09T08:06:24.203Z,8.62
2017-11-09T08:07:24.118Z,8.72
2017-11-09T08:08:24.024Z,8.87
2017-11-09T08:09:23.943Z,8.83
2017-11-09T08:10:23.850Z,8.83
2017-11-09T08:11:23.769Z,8.84
2017-11-09T08:12:23.678Z,8.97
2017-11-09T08:13:23.585Z,8.96
2017-11-09T08:14:23.508Z,8.94
2017-11-09T08:15:23.415Z,8.78
2017-11-09T08:16:23.330Z,8.83
2017-11-09T08:17:23.245Z,8.76
2017-11-09T08:18:23.157Z,8.57
2017-11-09T08:19:23.065Z,8.60
2017-11-09T08:20:22.983Z,8.68
2017-11-09T08:21:22.893Z,8.60
2017-11-09T08:22:22.800Z,8.71
2017-11-09T08:23:22.722Z,8.79
2017-11-09T08:24:22.629Z,8.72
2017-11-09T08:25:22.543Z,8.68
2017-11-09T08:26:22.455Z,8.73
2017-11-09T08:27:22.366Z,8.84
2017-11-09T08:28:22.282Z,8.66
2017-11-09T08:29:22.190Z,8.76
2017-11-09T08:30:22.102Z,8.81
2017-11-09T08:31:22.017Z,8.78
2017-11-09T08:32:21.935Z,8.88
2017-11-09T08:33:21.847Z,8.83
2017-11-09T08:34:21.760Z,8.81
2017-11-09T08:35:21.665Z,8.75
2017-11-09T08:36:21.596Z,8.93
2017-11-09T08:37:21.496Z,8.86
2017-11-09T08:38:21.414Z,8.84
2017-11-09T08:39:21.315Z,8.90
2017-11-09T08:40:21.236Z,8.87
2017-11-09T08:41:21.152Z,8.99
2017-11-09T08:42:21.062Z,8.90
2017-11-09T08:43:20.972Z,8.96
2017-11-09T08:44:20.889Z,8.87
2017-11-09T08:45:20.802Z,8.76
2017-11-09T08:46:20.716Z,8.88
2017-11-09T08:47:20.630Z,8.81
2017-11-09T08:48:20.540Z,8.84
2017-11-09T08:49:20.448Z,8.94
2017-11-09T08:50:20.367Z,8.96
2017-11-09T08:51:20.273Z,8.94
2017-11-09T08:52:20.199Z,9.01
2017-11-09T08:53:20.104Z,9.02
2017-11-09T08:54:20.015Z,9.10
2017-11-09T08:55:19.930Z,9.18
2017-11-09T08:56:19.842Z,9.09
2017-11-09T08:57:19.764Z,9.04
2017-11-09T08:58:19.682Z,9.09
2017-11-09T08:59:19.583Z,8.96
2017-11-09T09:00:19.503Z,8.79
2017-11-09T09:01:19.408Z,8.96
2017-11-09T09:02:19.324Z,8.94
2017-11-09T09:03:19.233Z,9.04
2017-11-09T09:04:19.152Z,9.01
2017-11-09T09:05:19.075Z,8.90
2017-11-09T09:06:18.989Z,8.87
2017-11-09T09:07:18.893Z,9.12
2017-11-09T09:08:18.800Z,9.10
2017-11-09T09:09:18.717Z,9.28
2017-11-09T09:10:18.742Z,9.10
2017-11-09T09:11:18.542Z,9.20
2017-11-09T09:12:18.457Z,8.78
2017-11-09T09:13:18.372Z,8.65
2017-11-09T09:14:18.290Z,8.86
2017-11-09T09:15:18.192Z,8.96
2017-11-09T09:16:18.102Z,9.04
2017-11-09T09:17:18.020Z,9.06
2017-11-09T09:18:17.941Z,9.21
2017-11-09T09:19:17.842Z,9.04
2017-11-09T09:20:17.770Z,9.18
2017-11-09T09:21:17.681Z,9.28
2017-11-09T09:22:17.593Z,9.45
2017-11-09T09:23:17.501Z,9.32
2017-11-09T09:24:17.412Z,8.97
2017-11-09T09:25:17.326Z,8.99
2017-11-09T09:26:17.240Z,8.94
2017-11-09T09:27:17.153Z,9.05
2017-11-09T09:28:17.077Z,8.94
2017-11-09T09:29:16.976Z,9.05
2017-11-09T09:30:16.891Z,9.09
2017-11-09T09:31:16.803Z,9.05
2017-11-09T09:32:16.716Z,8.99
2017-11-09T09:33:16.634Z,9.09
2017-11-09T09:34:16.547Z,8.86
2017-11-09T09:35:16.456Z,8.97
2017-11-09T09:36:16.368Z,9.10
2017-11-09T09:37:16.282Z,8.83
2017-11-09T09:38:16.215Z,8.99
2017-11-09T09:39:16.110Z,8.91
2017-11-09T09:40:16.019Z,8.99
2017-11-09T09:41:15.941Z,8.76
2017-11-09T09:42:15.844Z,8.99
2017-11-09T09:43:15.757Z,8.83
2017-11-09T09:44:15.680Z,9.04
2017-11-09T09:45:15.592Z,9.02
2017-11-09T09:46:15.515Z,8.94
2017-11-09T09:47:15.410Z,8.68
2017-11-09T09:48:15.319Z,8.81
2017-11-09T09:49:15.232Z,9.05
2017-11-09T09:50:15.154Z,8.93
2017-11-09T09:51:15.061Z,8.97
2017-11-09T09:52:14.972Z,8.97
2017-11-09T09:53:14.893Z,8.99
2017-11-09T09:54:14.803Z,8.79
2017-11-09T09:55:14.712Z,8.78
2017-11-09T09:56:14.624Z,8.75
2017-11-09T09:57:14.537Z,8.76
2017-11-09T09:58:14.454Z,8.94
2017-11-09T09:59:14.363Z,9.10
2017-11-09T10:00:14.273Z,9.02
2017-11-09T10:01:14.195Z,9.06
2017-11-09T10:02:14.107Z,9.12
2017-11-09T10:03:14.017Z,9.30
2017-11-09T10:04:13.929Z,9.34
2017-11-09T10:05:13.846Z,9.40
2017-11-09T10:06:13.757Z,8.97
2017-11-09T10:07:13.674Z,9.09
2017-11-09T10:08:13.583Z,8.94
2017-11-09T10:09:13.503Z,8.96
2017-11-09T10:10:13.419Z,9.10
2017-11-09T10:11:13.325Z,9.34
2017-11-09T10:12:13.240Z,9.34
2017-11-09T10:13:13.151Z,9.30
2017-11-09T10:14:13.064Z,9.28
2017-11-09T10:15:12.988Z,9.20
2017-11-09T10:16:12.888Z,9.21
2017-11-09T10:17:12.814Z,9.04
2017-11-09T10:18:12.718Z,8.97
2017-11-09T10:19:12.635Z,9.12
2017-11-09T10:20:12.558Z,9.21
2017-11-09T10:21:12.456Z,9.35
2017-11-09T10:22:12.370Z,9.13
2017-11-09T10:23:12.292Z,8.93
2017-11-09T10:24:12.197Z,8.88
2017-11-09T10:25:12.115Z,8.79
2017-11-09T10:26:12.021Z,8.90
2017-11-09T10:27:11.937Z,9.05
2017-11-09T10:28:11.855Z,9.28
2017-11-09T10:29:11.761Z,9.23
2017-11-09T10:30:11.680Z,9.28
2017-11-09T10:31:11.586Z,9.28
2017-11-09T10:32:11.497Z,9.09
2017-11-09T10:33:11.411Z,9.12
2017-11-09T10:34:11.325Z,9.25
2017-11-09T10:35:11.238Z,9.39
2017-11-09T10:36:11.151Z,9.42
2017-11-09T10:37:11.100Z,9.49
2017-11-09T10:38:10.978Z,9.49
2017-11-09T10:39:10.888Z,9.31
2017-11-09T10:40:10.816Z,9.20
2017-11-09T10:41:10.720Z,9.31
2017-11-09T10:42:10.638Z,9.01
2017-11-09T10:43:10.548Z,9.09
2017-11-09T10:44:10.465Z,9.23
2017-11-09T10:45:10.375Z,9.35
2017-11-09T10:46:10.292Z,9.30
2017-11-09T10:47:10.198Z,9.06
2017-11-09T10:48:10.128Z,9.15
2017-11-09T10:49:10.026Z,9.30
2017-11-09T10:50:09.944Z,9.27
2017-11-09T10:51:09.849Z,9.39
2017-11-09T10:52:09.766Z,9.43
2017-11-09T10:53:09.680Z,9.24
2017-11-09T10:54:09.591Z,9.10
2017-11-09T10:55:09.516Z,9.43
2017-11-09T10:56:09.429Z,9.46
2017-11-09T10:57:09.339Z,9.24
2017-11-09T10:58:09.252Z,9.27
2017-11-09T10:59:09.156Z,9.25
2017-11-09T11:00:09.074Z,9.39
2017-11-09T11:01:08.984Z,9.46
2017-11-09T11:02:08.902Z,9.49
2017-11-09T11:03:08.811Z,9.52
2017-11-09T11:04:08.721Z,9.52
2017-11-09T11:05:08.639Z,9.52
2017-11-09T11:06:08.554Z,9.52
2017-11-09T11:07:08.486Z,9.50
2017-11-09T11:08:08.382Z,9.48
2017-11-09T11:09:08.313Z,9.32
2017-11-09T11:10:08.212Z,9.43
2017-11-09T11:11:08.122Z,9.46
2017-11-09T11:12:08.039Z,9.49
2017-11-09T11:13:07.950Z,9.43
2017-11-09T11:14:07.866Z,9.43
2017-11-09T11:15:07.782Z,9.34
2017-11-09T11:16:07.692Z,9.40
2017-11-09T11:17:07.606Z,9.34
2017-11-09T11:18:07.520Z,9.30
2017-11-09T11:19:07.440Z,9.35
2017-11-09T11:20:07.360Z,9.49
2017-11-09T11:21:07.260Z,9.43
2017-11-09T11:22:07.175Z,9.39
2017-11-09T11:23:07.088Z,9.23
2017-11-09T11:24:07.012Z,9.01
2017-11-09T11:25:06.919Z,9.30
2017-11-09T11:26:06.823Z,9.43
2017-11-09T11:27:06.745Z,9.06
2017-11-09T11:28:06.663Z,9.24
2017-11-09T11:29:06.573Z,9.35
2017-11-09T11:30:06.491Z,9.32
2017-11-09T11:31:06.400Z,9.48
2017-11-09T11:32:06.310Z,9.45
2017-11-09T11:33:06.220Z,9.52
2017-11-09T11:34:06.133Z,9.53
2017-11-09T11:35:06.052Z,9.57
2017-11-09T11:36:05.973Z,9.53
2017-11-09T11:37:05.881Z,9.61
2017-11-09T11:38:05.799Z,9.60
2017-11-09T11:39:05.719Z,9.67
2017-11-09T11:40:05.624Z,9.61
2017-11-09T11:41:05.533Z,9.61
2017-11-09T11:42:05.448Z,9.60
2017-11-09T11:43:05.356Z,9.52
2017-11-09T11:44:05.272Z,9.43
2017-11-09T11:45:05.186Z,9.45
2017-11-09T11:46:05.101Z,9.48
2017-11-09T11:47:05.014Z,9.46
2017-11-09T11:48:04.932Z,9.49
2017-11-09T11:49:04.847Z,9.21
2017-11-09T11:50:04.756Z,9.24
2017-11-09T11:51:04.671Z,9.01
2017-11-09T11:52:04.588Z,9.09
2017-11-09T11:53:04.514Z,9.15
2017-11-09T11:54:04.408Z,9.23
2017-11-09T11:55:04.318Z,9.32
2017-11-09T11:56:04.229Z,9.32
2017-11-09T11:57:04.149Z,9.42
2017-11-09T11:58:04.057Z,9.56
2017-11-09T11:59:04.002Z,9.57
2017-11-09T12:00:03.882Z,9.46
2017-11-09T12:01:03.799Z,9.45
2017-11-09T12:02:03.721Z,9.21
2017-11-09T12:03:03.627Z,9.20
2017-11-09T12:04:03.539Z,9.31
2017-11-09T12:05:03.470Z,9.24
2017-11-09T12:06:03.376Z,9.06
2017-11-09T12:07:03.282Z,8.81
2017-11-09T12:08:03.193Z,8.96
2017-11-09T12:09:03.103Z,8.86
2017-11-09T12:10:03.014Z,8.87
2017-11-09T12:11:02.928Z,9.09
2017-11-09T12:12:02.867Z,9.15
2017-11-09T12:13:02.770Z,9.25
2017-11-09T12:14:02.669Z,9.18
2017-11-09T12:15:02.578Z,9.18
2017-11-09T12:16:02.508Z,9.34
2017-11-09T12:17:02.405Z,9.12
2017-11-09T12:18:02.320Z,9.34
2017-11-09T12:19:02.235Z,9.39
2017-11-09T12:20:02.151Z,9.32
2017-11-09T12:21:02.061Z,9.20
2017-11-09T12:22:01.977Z,9.25
2017-11-09T12:23:01.886Z,9.42
2017-11-09T12:24:01.797Z,9.45
2017-11-09T12:25:01.713Z,9.43
2017-11-09T12:26:01.625Z,9.48
2017-11-09T12:27:01.539Z,9.50
2017-11-09T12:28:01.461Z,9.64
2017-11-09T12:29:01.366Z,9.66
2017-11-09T12:30:01.284Z,9.49
2017-11-09T12:31:01.193Z,9.34
2017-11-09T12:32:01.106Z,9.35
2017-11-09T12:33:01.098Z,9.40
2017-11-09T12:34:00.936Z,9.45
2017-11-09T12:35:00.854Z,9.35
2017-11-09T12:36:00.764Z,9.25
2017-11-09T12:37:00.675Z,9.43
2017-11-09T12:38:00.589Z,9.34
2017-11-09T12:39:00.502Z,9.40
2017-11-09T12:40:00.412Z,9.25
2017-11-09T12:41:00.333Z,9.31
2017-11-09T12:42:00.238Z,9.21
2017-11-09T12:43:00.157Z,9.32
2017-11-09T12:44:00.073Z,9.31
2017-11-09T12:44:59.985Z,9.42
2017-11-09T12:45:59.899Z,9.24
2017-11-09T12:46:59.829Z,9.15
2017-11-09T12:47:59.733Z,9.06
2017-11-09T12:48:59.632Z,9.21
2017-11-09T12:49:59.560Z,9.28
2017-11-09T12:50:59.457Z,9.34
2017-11-09T12:51:59.380Z,9.35
2017-11-09T12:52:59.287Z,9.24
2017-11-09T12:53:59.195Z,9.05
2017-11-09T12:54:59.110Z,9.24
2017-11-09T12:55:59.033Z,9.38
2017-11-09T12:56:58.943Z,9.48
2017-11-09T12:57:58.856Z,9.39
2017-11-09T12:58:58.790Z,9.46
2017-11-09T12:59:58.677Z,9.42
2017-11-09T13:00:58.597Z,9.39
2017-11-09T13:01:58.510Z,9.32
2017-11-09T13:02:58.415Z,9.10
2017-11-09T13:03:58.345Z,9.09
2017-11-09T13:04:58.245Z,9.30
2017-11-09T13:05:58.159Z,9.43
2017-11-09T13:06:58.082Z,9.58
2017-11-09T13:07:57.984Z,9.56
2017-11-09T13:08:57.901Z,9.48
2017-11-09T13:09:57.818Z,9.48
2017-11-09T13:10:57.722Z,9.50
2017-11-09T13:11:57.643Z,9.58
2017-11-09T13:12:57.557Z,9.45
2017-11-09T13:13:57.469Z,9.43
2017-11-09T13:14:57.377Z,9.50
2017-11-09T13:15:57.300Z,9.63
2017-11-09T13:16:57.206Z,9.58